Ana Sayfa
METAR-TAF:

METAR-TAF

Havaalanları :

Challis Airport

Challis, Idaho, Amerika Birleşik Devletleri

Enlem: 44-31-22N, Boylam: 114-12-54W, yükseklik: 1546 m

Güncel hava durumu gözlemi

Rapor saat 00:55 UTC de 21 dakika önce yapıldı.
Rüzgar batı/kuzeybatıdan 9 kt ve 21 kt'a kadar ani rüzgarlar
Sıcaklık 22°C
Nem 17%
Basınç 1011 hPa
Görüş mesafesi: 16.1 km
Açık gökyüzü

METAR: KLLJ 200055Z AUTO 30009G21KT 10SM CLR 22/M04 A2985 RMK AO2 PK WND 31026/0004 SLP054 T02221044

Saat: 19:16 (01:16 UTC)


TAF: eksik

4.000'den fazla havaalanı için hava durumu gözlemleri ve tahminleri (METAR ve TAF raporları).

Kullanılabilir istasyonlar harita üzerinde sarı ve kırmızı noktalarla gösterilir.

İstasyonun adını görmek için fareyi noktanın üzerinde gezdirin.

Sonrasında hava gözlem ve tahminlerini görmek için tıklayın.

Haritayı değiştirmek için: yaklaştırmak için siyah artı işaretli yeşil düğmeye ve uzaklaştırmak için de eksi işaretli düğmeye hızla tıklayın; bitişik haritalar için yeşil okları kullanın.


METAR-TAF: